Time;durP1;ratioP1;P1;durP2;ratioP2;P2;SDS_P1;SDS_P2;PMS_P1;PMS_P2;Temp;Humidity;BMP_temperature;BMP_pressure;BME280_temperature;BME280_humidity;BME280_pressure;Samples;Min_cycle;Max_cycle;Signal;HPM_P1;HPM_P2
2023/08/27 00:00:47;;;;;;;7.78;4.13;;;15.80;99.90;;;;;;5015109;28;38036;-79
2023/08/27 00:03:13;;;;;;;6.32;4.30;;;15.80;99.90;;;;;;5018407;28;38229;-79
2023/08/27 00:05:43;;;;;;;7.00;3.97;;;15.80;99.90;;;;;;5017125;28;39134;-78
2023/08/27 00:08:10;;;;;;;7.18;3.88;;;15.80;99.90;;;;;;5028796;28;37630;-78
2023/08/27 00:10:36;;;;;;;8.05;3.80;;;15.80;99.90;;;;;;5019957;28;36005;-79
2023/08/27 00:13:02;;;;;;;7.10;4.25;;;15.80;99.90;;;;;;5021166;28;39194;-78
2023/08/27 00:15:29;;;;;;;7.38;4.30;;;15.80;99.90;;;;;;5025289;28;38244;-79
2023/08/27 00:17:55;;;;;;;6.93;3.78;;;15.80;99.90;;;;;;5026236;28;38036;-78
2023/08/27 00:20:21;;;;;;;7.55;4.28;;;15.80;99.90;;;;;;5020655;28;37210;-77
2023/08/27 00:22:47;;;;;;;6.65;3.60;;;15.70;99.90;;;;;;5021642;28;38464;-78
2023/08/27 00:25:14;;;;;;;5.85;4.03;;;15.70;99.90;;;;;;5017340;28;38424;-78
2023/08/27 00:27:40;;;;;;;6.15;3.95;;;15.70;99.90;;;;;;5015711;28;38305;-78
2023/08/27 00:30:06;;;;;;;7.70;4.22;;;15.70;99.90;;;;;;5021279;28;36206;-79
2023/08/27 00:32:33;;;;;;;5.85;4.40;;;15.70;99.90;;;;;;5021132;28;39241;-78
2023/08/27 00:35:00;;;;;;;5.22;4.45;;;15.70;99.90;;;;;;5021886;28;37316;-78
2023/08/27 00:37:26;;;;;;;7.68;4.93;;;15.70;99.90;;;;;;5021654;28;35879;-77
2023/08/27 00:39:53;;;;;;;10.93;4.20;;;15.70;99.90;;;;;;5025348;28;37002;-77
2023/08/27 00:42:19;;;;;;;4.15;3.72;;;15.70;99.90;;;;;;5019875;28;38012;-77
2023/08/27 00:44:45;;;;;;;5.47;4.13;;;15.70;99.90;;;;;;5023871;28;39056;-78
2023/08/27 00:47:16;;;;;;;5.30;4.68;;;15.70;99.90;;;;;;5022536;28;37429;-76
2023/08/27 00:49:42;;;;;;;8.65;4.70;;;15.70;99.90;;;;;;5019948;28;37528;-80
2023/08/27 00:52:09;;;;;;;8.45;4.25;;;15.70;99.90;;;;;;5022011;28;38994;-78
2023/08/27 00:54:36;;;;;;;5.75;4.47;;;15.70;99.90;;;;;;5021508;28;37270;-78
2023/08/27 00:57:03;;;;;;;8.27;4.93;;;15.70;99.90;;;;;;5029177;28;36452;-79
2023/08/27 00:59:30;;;;;;;9.40;4.90;;;15.70;99.90;;;;;;5013640;28;34609;-79
2023/08/27 01:01:56;;;;;;;9.18;5.57;;;15.70;99.90;;;;;;5501220;22;39252;-86
2023/08/27 01:04:23;;;;;;;7.10;5.07;;;15.70;99.90;;;;;;5020748;28;38511;-83
2023/08/27 01:06:49;;;;;;;8.57;5.53;;;15.60;99.90;;;;;;5044178;28;37393;-85
2023/08/27 01:09:28;;;;;;;8.35;5.65;;;15.60;99.90;;;;;;5039722;28;37190;-84
2023/08/27 01:12:18;;;;;;;8.15;5.60;;;15.60;99.90;;;;;;5054843;28;39247;-86
2023/08/27 01:14:47;;;;;;;10.18;5.28;;;15.60;99.90;;;;;;5043628;28;47056;-86
2023/08/27 01:17:16;;;;;;;6.65;5.38;;;15.60;99.90;;;;;;5024195;28;37821;-85
2023/08/27 01:19:42;;;;;;;7.05;5.45;;;15.60;99.90;;;;;;5044816;28;36433;-85
2023/08/27 01:22:09;;;;;;;7.18;5.63;;;15.60;99.90;;;;;;5046420;28;38206;-88
2023/08/27 01:24:35;;;;;;;7.25;4.82;;;15.50;99.90;;;;;;5047837;28;39230;-86
2023/08/27 01:27:12;;;;;;;10.25;5.53;;;15.50;99.90;;;;;;5046126;28;36792;-87
2023/08/27 01:29:50;;;;;;;6.07;5.40;;;15.50;99.90;;;;;;5034316;28;47290;-86
2023/08/27 01:33:02;;;;;;;12.35;5.18;;;15.50;99.90;;;;;;5055880;28;38003;-85
2023/08/27 01:35:30;;;;;;;7.40;6.15;;;15.50;99.90;;;;;;5027989;28;47141;-86
2023/08/27 01:37:56;;;;;;;8.38;5.57;;;15.50;99.90;;;;;;5035611;28;38509;-87
2023/08/27 01:40:25;;;;;;;8.10;5.60;;;15.60;99.90;;;;;;5043084;28;36069;-86
2023/08/27 01:42:51;;;;;;;6.88;5.30;;;15.60;99.90;;;;;;5043528;28;37872;-87
2023/08/27 01:45:17;;;;;;;9.02;5.07;;;15.60;99.90;;;;;;5046804;28;39070;-86
2023/08/27 01:47:44;;;;;;;8.07;5.53;;;15.60;99.90;;;;;;5046547;28;37853;-86
2023/08/27 01:50:11;;;;;;;12.30;6.63;;;15.60;99.90;;;;;;5043584;28;37362;-85
2023/08/27 01:52:37;;;;;;;12.43;6.50;;;15.60;99.90;;;;;;5036535;28;39161;-84
2023/08/27 01:55:07;;;;;;;10.15;6.82;;;15.60;99.90;;;;;;5038921;28;38515;-85
2023/08/27 01:57:34;;;;;;;8.65;6.93;;;15.60;99.90;;;;;;5038267;28;47162;-85
2023/08/27 02:00:00;;;;;;;9.93;6.90;;;15.60;99.90;;;;;;5044841;28;37959;-83
2023/08/27 02:02:26;;;;;;;9.70;6.20;;;15.60;99.90;;;;;;5054759;28;38579;-84
2023/08/27 02:04:52;;;;;;;6.95;6.07;;;15.60;99.90;;;;;;5039679;28;37545;-84
2023/08/27 02:07:18;;;;;;;11.07;6.40;;;15.60;99.90;;;;;;5046180;28;38957;-85
2023/08/27 02:09:44;;;;;;;9.80;5.78;;;15.60;99.90;;;;;;5039058;28;36248;-86
2023/08/27 02:12:10;;;;;;;10.73;6.43;;;15.60;99.90;;;;;;5048234;28;38844;-83
2023/08/27 02:14:38;;;;;;;9.82;6.47;;;15.60;99.90;;;;;;5045261;28;37338;-85
2023/08/27 02:17:04;;;;;;;9.18;5.88;;;15.60;99.90;;;;;;5041572;28;37302;-85
2023/08/27 02:19:30;;;;;;;12.95;6.85;;;15.50;99.90;;;;;;5043193;28;38226;-86
2023/08/27 02:21:56;;;;;;;9.93;5.95;;;15.50;99.90;;;;;;5040615;28;38543;-85
2023/08/27 02:24:23;;;;;;;7.85;5.90;;;15.50;99.90;;;;;;5039040;28;37288;-85
2023/08/27 02:26:49;;;;;;;10.05;6.28;;;15.50;99.90;;;;;;5038422;28;36508;-86
2023/08/27 02:29:15;;;;;;;9.15;6.07;;;15.50;99.90;;;;;;5028644;28;35524;-85
2023/08/27 02:31:41;;;;;;;8.23;6.13;;;15.50;99.90;;;;;;5038959;28;38645;-85
2023/08/27 02:34:07;;;;;;;13.05;7.18;;;15.50;99.90;;;;;;5038201;28;38831;-84
2023/08/27 02:36:33;;;;;;;12.02;6.63;;;15.50;99.90;;;;;;5037569;28;37637;-84
2023/08/27 02:38:59;;;;;;;13.80;6.20;;;15.50;99.90;;;;;;5037847;28;36223;-84
2023/08/27 02:41:26;;;;;;;10.18;5.53;;;15.50;99.90;;;;;;5044013;28;39267;-85
2023/08/27 02:43:52;;;;;;;7.68;5.20;;;15.50;99.90;;;;;;5049123;28;37490;-85
2023/08/27 02:46:18;;;;;;;9.57;5.57;;;15.50;99.90;;;;;;5039428;28;37586;-85
2023/08/27 02:48:44;;;;;;;10.38;5.05;;;15.60;99.90;;;;;;5044070;28;37325;-85
2023/08/27 02:51:10;;;;;;;9.80;5.57;;;15.60;99.90;;;;;;5049525;28;38035;-86
2023/08/27 02:53:37;;;;;;;11.10;5.68;;;15.60;99.90;;;;;;5040601;28;37252;-86
2023/08/27 02:56:03;;;;;;;7.43;5.15;;;15.60;99.90;;;;;;5045685;28;37634;-84
2023/08/27 02:58:30;;;;;;;11.77;5.32;;;15.60;99.90;;;;;;5041231;28;36129;-86
2023/08/27 03:00:56;;;;;;;11.55;5.05;;;15.60;99.90;;;;;;5041487;28;37692;-84
2023/08/27 03:03:22;;;;;;;8.70;4.72;;;15.60;99.90;;;;;;5036476;28;37427;-85
2023/08/27 03:05:48;;;;;;;6.30;4.22;;;15.60;99.90;;;;;;5047556;28;36944;-85
2023/08/27 03:08:14;;;;;;;8.25;3.90;;;15.60;99.90;;;;;;5062441;28;37659;-86
2023/08/27 03:10:40;;;;;;;12.65;4.80;;;15.60;99.90;;;;;;5048344;28;38749;-84
2023/08/27 03:13:07;;;;;;;10.82;4.68;;;15.70;99.90;;;;;;5035447;28;37327;-85
2023/08/27 03:15:33;;;;;;;6.55;3.20;;;15.70;99.90;;;;;;5041015;28;37766;-85
2023/08/27 03:17:59;;;;;;;7.40;1.63;;;15.70;99.90;;;;;;5038654;28;36114;-85
2023/08/27 03:20:25;;;;;;;7.07;1.40;;;15.50;99.90;;;;;;5038974;28;39198;-85
2023/08/27 03:22:51;;;;;;;3.40;0.90;;;15.40;99.90;;;;;;5040848;28;38859;-86
2023/08/27 03:25:17;;;;;;;7.85;1.10;;;15.40;99.90;;;;;;5047837;28;37545;-86
2023/08/27 03:27:43;;;;;;;6.65;1.52;;;15.40;99.90;;;;;;5046247;28;35939;-85
2023/08/27 03:30:10;;;;;;;4.03;0.90;;;15.40;99.90;;;;;;5040970;28;38546;-85
2023/08/27 03:32:37;;;;;;;6.65;1.00;;;15.40;99.90;;;;;;5043307;28;37518;-86
2023/08/27 03:35:03;;;;;;;3.47;0.77;;;15.30;99.90;;;;;;5042835;28;36654;-88
2023/08/27 03:37:29;;;;;;;5.60;1.02;;;15.20;99.90;;;;;;5046605;28;47414;-87
2023/08/27 03:39:55;;;;;;;3.63;0.60;;;15.20;99.90;;;;;;5045127;28;37712;-87
2023/08/27 03:42:21;;;;;;;3.30;0.82;;;15.00;99.90;;;;;;5045126;28;38496;-88
2023/08/27 03:44:47;;;;;;;5.28;0.65;;;15.00;99.90;;;;;;5034599;28;37198;-88
2023/08/27 03:47:13;;;;;;;3.20;0.80;;;14.90;99.90;;;;;;5040077;28;36993;-88
2023/08/27 03:49:40;;;;;;;2.97;0.60;;;14.90;99.90;;;;;;5042635;28;38268;-88
2023/08/27 03:52:06;;;;;;;3.53;0.90;;;14.80;99.90;;;;;;5039900;28;39005;-87
2023/08/27 03:54:32;;;;;;;1.92;0.47;;;14.90;99.90;;;;;;5042902;28;39010;-86
2023/08/27 03:56:58;;;;;;;2.22;0.60;;;14.90;99.90;;;;;;5040183;28;37059;-87
2023/08/27 03:59:24;;;;;;;3.45;0.57;;;14.80;99.90;;;;;;5033516;28;38072;-87
2023/08/27 04:01:52;;;;;;;2.33;0.50;;;14.80;99.90;;;;;;5039503;28;37150;-86
2023/08/27 04:04:18;;;;;;;2.90;0.60;;;14.70;99.90;;;;;;5035110;28;36923;-88
2023/08/27 04:06:45;;;;;;;2.72;0.55;;;14.60;99.90;;;;;;5037662;28;37356;-86
2023/08/27 04:09:11;;;;;;;2.25;0.68;;;14.60;99.90;;;;;;5039527;28;38294;-85
2023/08/27 04:11:37;;;;;;;2.63;0.65;;;14.60;99.90;;;;;;5035441;28;38797;-85
2023/08/27 04:14:04;;;;;;;3.10;0.70;;;14.60;99.90;;;;;;5037917;28;38650;-85
2023/08/27 04:16:30;;;;;;;3.13;0.60;;;14.60;99.90;;;;;;5037186;28;37990;-86
2023/08/27 04:18:56;;;;;;;1.27;0.63;;;14.60;99.90;;;;;;5037069;28;37905;-86
2023/08/27 04:21:22;;;;;;;5.38;0.80;;;14.60;99.90;;;;;;5030179;28;37803;-85
2023/08/27 04:23:48;;;;;;;0.60;0.38;;;14.60;99.90;;;;;;5020017;28;38478;-85
2023/08/27 04:26:14;;;;;;;2.25;0.68;;;14.60;99.90;;;;;;5033946;28;36151;-85
2023/08/27 04:28:41;;;;;;;2.10;0.68;;;14.60;99.90;;;;;;5041872;28;38777;-87
2023/08/27 04:31:07;;;;;;;2.90;0.73;;;14.60;99.90;;;;;;5043033;28;39378;-86
2023/08/27 04:33:34;;;;;;;2.05;0.98;;;14.60;99.90;;;;;;5036859;28;36570;-87
2023/08/27 04:36:00;;;;;;;2.85;1.10;;;14.60;99.90;;;;;;5038233;28;37511;-86
2023/08/27 04:38:26;;;;;;;1.40;0.70;;;14.60;99.90;;;;;;5035909;28;38958;-84
2023/08/27 04:40:52;;;;;;;2.40;0.80;;;14.60;99.90;;;;;;5054295;28;36250;-85
2023/08/27 04:43:19;;;;;;;0.95;0.68;;;14.50;99.90;;;;;;5053460;28;38125;-86
2023/08/27 04:45:45;;;;;;;5.53;1.00;;;14.50;99.90;;;;;;5040878;28;35776;-87
2023/08/27 04:48:11;;;;;;;2.60;0.60;;;14.40;99.90;;;;;;5041633;28;37804;-86
2023/08/27 04:50:38;;;;;;;3.30;0.80;;;14.40;99.90;;;;;;5051923;28;39057;-89
2023/08/27 04:53:04;;;;;;;4.72;0.82;;;14.40;99.90;;;;;;5045197;28;37864;-85
2023/08/27 04:55:30;;;;;;;3.55;0.80;;;14.40;99.90;;;;;;5035742;28;38531;-87
2023/08/27 04:57:56;;;;;;;6.72;1.10;;;14.40;99.90;;;;;;5043860;28;38615;-87
2023/08/27 05:00:23;;;;;;;3.28;1.00;;;14.40;99.90;;;;;;5041002;28;38005;-86
2023/08/27 05:02:49;;;;;;;3.80;0.98;;;14.40;99.90;;;;;;5048639;28;38633;-86
2023/08/27 05:05:16;;;;;;;1.67;1.02;;;14.30;99.90;;;;;;5030917;28;36720;-86
2023/08/27 05:07:43;;;;;;;4.80;1.08;;;14.30;99.90;;;;;;5044484;28;37743;-86
2023/08/27 05:10:12;;;;;;;3.45;1.10;;;14.30;99.90;;;;;;5038405;28;38274;-88
2023/08/27 05:12:38;;;;;;;6.55;0.98;;;14.30;99.90;;;;;;5045786;28;38135;-89
2023/08/27 05:15:06;;;;;;;5.63;1.20;;;14.30;99.90;;;;;;5041234;28;36360;-86
2023/08/27 05:17:32;;;;;;;4.25;1.25;;;14.30;99.90;;;;;;5043726;28;38882;-88
2023/08/27 05:19:58;;;;;;;2.75;1.30;;;14.40;99.90;;;;;;5039276;28;38809;-87
2023/08/27 05:22:24;;;;;;;2.83;1.40;;;14.40;99.90;;;;;;5040258;28;38265;-88
2023/08/27 05:24:50;;;;;;;7.88;1.88;;;14.40;99.90;;;;;;5039918;28;35993;-87
2023/08/27 05:27:16;;;;;;;7.75;2.67;;;14.50;99.90;;;;;;5041607;28;37820;-88
2023/08/27 05:29:43;;;;;;;8.02;3.75;;;14.60;99.90;;;;;;5038238;28;37119;-87
2023/08/27 05:32:09;;;;;;;7.35;3.28;;;14.60;99.90;;;;;;5045187;28;37140;-87
2023/08/27 05:34:36;;;;;;;8.00;3.92;;;14.70;99.90;;;;;;5044830;28;37653;-86
2023/08/27 05:37:03;;;;;;;11.13;4.20;;;14.80;99.90;;;;;;5043151;28;37741;-85
2023/08/27 05:39:29;;;;;;;8.68;5.65;;;14.80;99.90;;;;;;5036205;28;38406;-87
2023/08/27 05:41:55;;;;;;;12.32;6.40;;;14.90;99.90;;;;;;5039747;28;37396;-86
2023/08/27 05:44:22;;;;;;;16.00;7.38;;;14.90;99.90;;;;;;5039532;28;36206;-87
2023/08/27 05:46:48;;;;;;;9.40;6.68;;;15.00;99.90;;;;;;5037048;28;37603;-85
2023/08/27 05:49:15;;;;;;;15.05;6.97;;;15.00;99.90;;;;;;5037618;28;39132;-86
2023/08/27 05:51:41;;;;;;;13.15;7.47;;;15.10;99.90;;;;;;5039004;28;36216;-88
2023/08/27 05:54:07;;;;;;;16.63;7.70;;;15.20;99.90;;;;;;5032223;28;37031;-86
2023/08/27 05:56:33;;;;;;;18.27;10.13;;;15.20;99.90;;;;;;5033136;28;38719;-85
2023/08/27 05:58:59;;;;;;;17.02;9.85;;;15.30;99.90;;;;;;5037170;28;37066;-88
2023/08/27 06:01:29;;;;;;;14.90;9.77;;;15.30;99.90;;;;;;5029853;28;37781;-86
2023/08/27 06:03:55;;;;;;;15.73;9.50;;;15.40;99.90;;;;;;5022551;28;35837;-86
2023/08/27 06:06:22;;;;;;;17.30;8.68;;;15.40;99.90;;;;;;5042147;28;37972;-88
2023/08/27 06:08:48;;;;;;;18.95;8.68;;;15.50;99.90;;;;;;5032866;28;37400;-88
2023/08/27 06:11:14;;;;;;;14.98;9.23;;;15.50;99.90;;;;;;5028214;28;37252;-86
2023/08/27 06:13:40;;;;;;;12.50;7.65;;;15.60;99.90;;;;;;5037970;28;36108;-86
2023/08/27 06:16:06;;;;;;;15.43;8.23;;;15.70;99.90;;;;;;5041326;28;37733;-88
2023/08/27 06:18:32;;;;;;;12.85;8.35;;;15.70;99.90;;;;;;5043825;28;38763;-88
2023/08/27 06:20:58;;;;;;;11.00;8.32;;;15.80;99.90;;;;;;5046220;28;36922;-91
2023/08/27 06:23:25;;;;;;;12.60;8.07;;;15.80;99.90;;;;;;5040609;28;36130;-87
2023/08/27 06:25:51;;;;;;;12.73;8.25;;;15.80;99.90;;;;;;5038723;28;38640;-88
2023/08/27 06:28:17;;;;;;;12.35;7.60;;;15.80;99.90;;;;;;5031202;28;39085;-91
2023/08/27 06:30:43;;;;;;;10.77;7.20;;;15.80;99.90;;;;;;5015004;28;37174;-89
2023/08/27 06:33:09;;;;;;;15.55;8.02;;;15.90;99.90;;;;;;5020637;28;37360;-90
2023/08/27 06:35:36;;;;;;;13.30;7.78;;;15.90;99.90;;;;;;5040194;28;40551;-90
2023/08/27 06:38:03;;;;;;;9.02;7.50;;;16.00;99.90;;;;;;5055388;28;37608;-87
2023/08/27 06:40:29;;;;;;;14.45;9.07;;;16.10;99.90;;;;;;5036951;28;37699;-87
2023/08/27 06:42:59;;;;;;;16.17;9.23;;;16.20;99.90;;;;;;5046823;28;37318;-87
2023/08/27 06:45:27;;;;;;;11.68;8.65;;;16.40;99.90;;;;;;5039892;28;38619;-87
2023/08/27 06:47:54;;;;;;;16.80;9.07;;;16.50;99.90;;;;;;5043239;28;38193;-87
2023/08/27 06:50:21;;;;;;;12.23;8.38;;;16.60;99.90;;;;;;5040366;28;39547;-88
2023/08/27 06:52:47;;;;;;;12.13;9.80;;;16.60;99.90;;;;;;5038973;28;36630;-85
2023/08/27 06:55:13;;;;;;;12.18;9.10;;;16.50;99.90;;;;;;5035083;28;37671;-85
2023/08/27 06:57:39;;;;;;;10.77;8.82;;;16.50;99.90;;;;;;5040275;28;38242;-84
2023/08/27 07:00:07;;;;;;;12.35;8.25;;;16.40;99.90;;;;;;5041792;28;38199;-85
2023/08/27 07:02:33;;;;;;;9.52;7.85;;;16.50;99.90;;;;;;5036624;28;36729;-84
2023/08/27 07:05:00;;;;;;;13.13;6.80;;;16.60;99.90;;;;;;5046403;28;39386;-84
2023/08/27 07:07:26;;;;;;;7.90;5.20;;;16.70;99.90;;;;;;5043348;28;38630;-84
2023/08/27 07:09:52;;;;;;;7.82;5.15;;;16.60;99.90;;;;;;5043017;28;38111;-87
2023/08/27 07:12:27;;;;;;;5.47;3.08;;;16.60;99.90;;;;;;5045369;28;36805;-88
2023/08/27 07:15:04;;;;;;;4.15;2.05;;;16.30;99.90;;;;;;5041062;28;38579;-85
2023/08/27 07:17:44;;;;;;;2.05;1.00;;;16.10;99.90;;;;;;5002470;28;47342;-82
2023/08/27 07:20:23;;;;;;;2.47;1.05;;;15.90;99.90;;;;;;5022586;28;37882;-80
2023/08/27 07:23:06;;;;;;;1.33;0.63;;;15.80;99.90;;;;;;4976939;28;36159;-86
2023/08/27 07:25:47;;;;;;;2.05;0.88;;;15.80;99.90;;;;;;4981294;28;48319;-84
2023/08/27 07:28:52;;;;;;;;;;;;;;;;;;;;;
2023/08/27 07:37:54;;;;;;;0.73;0.50;;;16.20;99.90;;;;;;4982191;28;39255;-85
2023/08/27 07:41:23;;;;;;;;;;;;;;;;;;;;;
2023/08/27 07:44:02;;;;;;;1.85;0.70;;;15.60;99.90;;;;;;4957558;28;47938;-87
2023/08/27 07:46:42;;;;;;;2.25;0.70;;;15.20;99.90;;;;;;4936520;28;47487;-86
2023/08/27 07:49:33;;;;;;;4.50;0.75;;;15.00;99.90;;;;;;4967243;28;39904;-85
2023/08/27 07:55:53;;;;;;;;;;;;;;;;;;;;;
2023/08/27 07:58:58;;;;;;;;;;;;;;;;;;;;;
2023/08/27 08:02:14;;;;;;;;;;;;;;;;;;;;;
2023/08/27 08:05:03;;;;;;;4.22;0.77;;;14.40;99.90;;;;;;4903807;28;48809;-87
2023/08/27 08:08:02;;;;;;;;;;;;;;;;;;;;;
2023/08/27 08:10:52;;;;;;;;;;;;;;;;;;;;;
2023/08/27 08:13:48;;;;;;;1.92;0.40;;;14.10;99.90;;;;;;5033185;28;39948;-82
2023/08/27 08:16:11;;;;;;;3.40;0.65;;;14.20;99.90;;;;;;5018751;28;39400;-84
2023/08/27 08:24:55;;;;;;;1.75;0.20;;;14.20;99.90;;;;;;4938547;28;48751;-83
2023/08/27 08:27:48;;;;;;;1.30;0.77;;;14.50;99.90;;;;;;4942224;28;38926;-86
2023/08/27 08:30:22;;;;;;;0.20;0.20;;;14.80;99.90;;;;;;4889829;28;37424;-80
2023/08/27 08:32:48;;;;;;;1.08;0.40;;;15.40;99.90;;;;;;4922629;28;35884;-79
2023/08/27 08:35:46;;;;;;;2.45;0.40;;;16.00;99.90;;;;;;4940897;28;39094;-78
2023/08/27 08:38:30;;;;;;;1.10;0.40;;;16.50;99.90;;;;;;4917080;28;39045;-78
2023/08/27 08:40:59;;;;;;;1.58;0.50;;;16.70;99.90;;;;;;4948809;28;36797;-78
2023/08/27 08:43:38;;;;;;;2.70;0.60;;;16.40;99.90;;;;;;5040594;28;37054;-82
2023/08/27 08:46:08;;;;;;;0.60;0.40;;;16.10;99.90;;;;;;5035728;28;38093;-79
2023/08/27 08:48:42;;;;;;;2.28;0.73;;;15.80;99.90;;;;;;5042755;28;37928;-83
2023/08/27 08:51:10;;;;;;;3.13;0.60;;;15.60;99.90;;;;;;5029244;28;37121;-79
2023/08/27 08:53:40;;;;;;;1.17;0.40;;;15.40;99.90;;;;;;5037384;28;37663;-80
2023/08/27 08:56:12;;;;;;;2.17;0.50;;;15.20;99.90;;;;;;5039043;28;39718;-79
2023/08/27 08:58:44;;;;;;;0.63;0.50;;;15.20;99.90;;;;;;5029571;28;37420;-82
2023/08/27 09:01:14;;;;;;;1.08;0.47;;;15.20;99.90;;;;;;5032085;28;39486;-83
2023/08/27 09:03:40;;;;;;;1.75;0.50;;;15.20;99.90;;;;;;5032335;28;36207;-84
2023/08/27 09:06:07;;;;;;;1.45;0.68;;;15.10;99.90;;;;;;5027050;28;38084;-80
2023/08/27 09:08:36;;;;;;;1.80;0.80;;;14.90;99.90;;;;;;5044039;28;38630;-81
2023/08/27 09:11:03;;;;;;;3.97;0.98;;;15.00;99.90;;;;;;5039569;28;37484;-81
2023/08/27 09:13:30;;;;;;;2.35;1.00;;;15.00;99.90;;;;;;5038179;28;36944;-80
2023/08/27 09:15:56;;;;;;;2.05;1.10;;;15.10;99.90;;;;;;5039411;28;38522;-80
2023/08/27 09:18:22;;;;;;;3.85;1.05;;;15.10;99.90;;;;;;5034650;28;37530;-81
2023/08/27 09:20:50;;;;;;;3.85;1.20;;;15.10;99.90;;;;;;5036535;28;36790;-85
2023/08/27 09:23:16;;;;;;;3.85;1.67;;;14.90;99.90;;;;;;5013189;28;36973;-84
2023/08/27 09:25:43;;;;;;;2.28;1.23;;;14.90;99.90;;;;;;5040324;28;38623;-85
2023/08/27 09:28:11;;;;;;;3.38;0.93;;;14.80;99.90;;;;;;5032985;28;38318;-85
2023/08/27 09:30:37;;;;;;;0.93;0.60;;;14.50;99.90;;;;;;5033481;28;39056;-87
2023/08/27 09:33:03;;;;;;;2.17;0.52;;;14.30;99.90;;;;;;5044876;28;35843;-85
2023/08/27 09:35:40;;;;;;;2.47;0.70;;;14.00;99.90;;;;;;5025647;28;38774;-79
2023/08/27 09:38:11;;;;;;;2.45;0.60;;;13.90;99.90;;;;;;5032080;28;38414;-83
2023/08/27 09:40:37;;;;;;;1.92;0.75;;;13.70;99.90;;;;;;5023911;28;36710;-84
2023/08/27 09:43:13;;;;;;;4.18;0.68;;;13.50;99.90;;;;;;5031216;28;37228;-81
2023/08/27 09:45:39;;;;;;;4.43;1.20;;;13.40;99.90;;;;;;5039761;28;39004;-79
2023/08/27 09:48:05;;;;;;;3.00;0.88;;;13.30;99.90;;;;;;5041843;28;38125;-82
2023/08/27 09:50:32;;;;;;;1.95;0.77;;;13.30;99.90;;;;;;5033701;28;39282;-80
2023/08/27 09:53:11;;;;;;;2.00;0.70;;;13.20;99.90;;;;;;5028855;28;38443;-78
2023/08/27 09:55:38;;;;;;;4.65;0.60;;;13.30;99.90;;;;;;5031833;28;47153;-81
2023/08/27 09:58:05;;;;;;;2.10;0.73;;;13.40;99.90;;;;;;5037217;28;37326;-83
2023/08/27 10:00:32;;;;;;;1.05;0.50;;;13.40;99.90;;;;;;5044230;28;36595;-81
2023/08/27 10:02:58;;;;;;;4.07;1.15;;;13.40;99.90;;;;;;5051715;28;36849;-82
2023/08/27 10:05:27;;;;;;;3.45;0.80;;;13.50;99.90;;;;;;5060000;28;40220;-84
2023/08/27 10:08:02;;;;;;;3.45;0.80;;;13.60;99.90;;;;;;5039152;28;37434;-85
2023/08/27 10:10:29;;;;;;;1.33;0.55;;;13.60;99.90;;;;;;5058000;28;49112;-84
2023/08/27 10:12:56;;;;;;;4.55;0.60;;;13.70;99.90;;;;;;5052012;28;37836;-85
2023/08/27 10:15:27;;;;;;;5.22;0.82;;;13.70;99.90;;;;;;5047544;28;39025;-86
2023/08/27 10:17:53;;;;;;;0.95;0.50;;;13.80;99.90;;;;;;5043993;28;39961;-86
2023/08/27 10:20:20;;;;;;;1.90;0.50;;;14.00;99.90;;;;;;5050053;28;37784;-84
2023/08/27 10:22:47;;;;;;;1.58;0.50;;;14.00;99.90;;;;;;5051609;28;38166;-85
2023/08/27 10:25:20;;;;;;;1.92;0.70;;;14.10;99.90;;;;;;5038301;28;37731;-85
2023/08/27 10:27:48;;;;;;;3.42;0.85;;;14.20;99.90;;;;;;5026202;28;38805;-87
2023/08/27 10:30:16;;;;;;;2.90;0.80;;;14.30;99.90;;;;;;5025485;28;38283;-83
2023/08/27 10:32:42;;;;;;;2.55;0.73;;;14.40;99.90;;;;;;5024146;28;37079;-85
2023/08/27 10:35:09;;;;;;;0.98;0.45;;;14.50;99.90;;;;;;5029279;28;38862;-86
2023/08/27 10:37:40;;;;;;;1.65;0.80;;;14.70;99.90;;;;;;5042165;28;38787;-85
2023/08/27 10:40:09;;;;;;;2.17;0.90;;;14.80;99.90;;;;;;5043870;28;37480;-81
2023/08/27 10:42:38;;;;;;;2.67;0.60;;;14.80;99.90;;;;;;5046137;28;38075;-86
2023/08/27 10:45:18;;;;;;;2.13;0.70;;;14.90;99.90;;;;;;5048375;28;37781;-83
2023/08/27 10:48:17;;;;;;;1.13;0.77;;;15.10;99.90;;;;;;5031038;28;47063;-87
2023/08/27 10:50:51;;;;;;;4.13;0.93;;;15.00;99.90;;;;;;4986824;28;47459;-84
2023/08/27 10:53:19;;;;;;;2.80;0.98;;;15.00;99.90;;;;;;5043048;28;36621;-83
2023/08/27 10:55:53;;;;;;;2.85;1.02;;;15.00;99.90;;;;;;5036548;28;38669;-84
2023/08/27 10:58:21;;;;;;;4.85;1.27;;;15.10;99.90;;;;;;5036961;28;37646;-85
2023/08/27 11:01:06;;;;;;;6.00;1.70;;;15.30;99.90;;;;;;5051552;28;37191;-86
2023/08/27 11:03:55;;;;;;;5.13;0.80;;;15.70;99.90;;;;;;5040257;28;47111;-85
2023/08/27 11:06:43;;;;;;;6.57;1.17;;;16.10;99.90;;;;;;5028147;28;38544;-85
2023/08/27 11:09:29;;;;;;;4.78;1.02;;;16.30;99.90;;;;;;5014454;28;37399;-85
2023/08/27 11:12:03;;;;;;;3.50;0.95;;;16.30;99.90;;;;;;5029150;28;37853;-82
2023/08/27 11:14:35;;;;;;;4.28;0.88;;;16.20;99.90;;;;;;5013365;28;46399;-83
2023/08/27 11:17:06;;;;;;;2.55;0.60;;;16.20;99.90;;;;;;5022930;28;37319;-78
2023/08/27 11:19:38;;;;;;;1.98;0.70;;;16.20;99.90;;;;;;5018675;28;48464;-80
2023/08/27 11:22:15;;;;;;;;;;;16.40;99.90;;;;;;5026979;28;36818;-86
2023/08/27 11:24:49;;;;;;;2.33;0.80;;;16.70;99.90;;;;;;5040733;28;38911;-82
2023/08/27 11:27:22;;;;;;;4.38;0.80;;;17.10;99.90;;;;;;5037031;28;38647;-84
2023/08/27 11:29:57;;;;;;;5.13;0.80;;;17.40;99.90;;;;;;5035601;28;37864;-84
2023/08/27 11:32:26;;;;;;;2.05;0.70;;;17.70;99.90;;;;;;5024537;28;37986;-83
2023/08/27 11:35:06;;;;;;;3.80;0.90;;;17.50;99.90;;;;;;5043712;28;37991;-84
2023/08/27 11:37:32;;;;;;;3.58;0.65;;;17.30;99.90;;;;;;5047201;28;47151;-84
2023/08/27 11:39:58;;;;;;;2.55;0.40;;;17.10;99.90;;;;;;5042806;28;37789;-84
2023/08/27 11:42:24;;;;;;;3.03;1.05;;;17.00;99.90;;;;;;5033582;28;38178;-82
2023/08/27 11:44:55;;;;;;;2.58;0.82;;;16.90;99.90;;;;;;5038375;28;37496;-85
2023/08/27 11:47:22;;;;;;;2.97;1.25;;;16.80;99.90;;;;;;5042528;28;39521;-84
2023/08/27 11:49:56;;;;;;;2.58;1.23;;;16.90;99.90;;;;;;5037867;28;37312;-82
2023/08/27 11:52:22;;;;;;;4.18;1.58;;;16.90;99.90;;;;;;5041692;28;37714;-84
2023/08/27 11:54:49;;;;;;;3.42;1.23;;;17.00;99.90;;;;;;5038886;28;37345;-83
2023/08/27 11:57:15;;;;;;;6.80;1.50;;;17.30;99.90;;;;;;5043080;28;38291;-84
2023/08/27 11:59:42;;;;;;;5.20;1.40;;;17.80;99.90;;;;;;5048812;28;37477;-83
2023/08/27 12:02:11;;;;;;;5.78;1.42;;;18.20;99.90;;;;;;5042164;28;37791;-83
2023/08/27 12:04:39;;;;;;;4.20;1.30;;;18.30;99.90;;;;;;5038340;28;37116;-80
2023/08/27 12:07:06;;;;;;;3.58;1.15;;;18.70;99.90;;;;;;5039893;28;39009;-81
2023/08/27 12:09:34;;;;;;;3.25;1.63;;;18.80;99.90;;;;;;5047094;28;20080;-82
2023/08/27 12:12:02;;;;;;;2.67;1.60;;;18.80;99.90;;;;;;5037994;28;37061;-77
2023/08/27 12:14:29;;;;;;;2.65;1.98;;;18.70;99.90;;;;;;5040199;28;47363;-80
2023/08/27 12:17:03;;;;;;;3.78;1.77;;;18.50;99.90;;;;;;5043095;28;37689;-82
2023/08/27 12:19:30;;;;;;;8.68;1.80;;;18.60;99.90;;;;;;5039155;28;48762;-77
2023/08/27 12:21:57;;;;;;;4.32;1.77;;;19.00;99.90;;;;;;5033113;28;36765;-81
2023/08/27 12:24:30;;;;;;;4.47;1.60;;;19.40;99.90;;;;;;5035777;28;37156;-81
2023/08/27 12:26:59;;;;;;;2.40;1.27;;;19.40;99.90;;;;;;5027846;28;38824;-80
2023/08/27 12:29:30;;;;;;;4.47;1.17;;;19.60;99.90;;;;;;5043834;28;37872;-82
2023/08/27 12:31:58;;;;;;;4.18;1.23;;;19.60;99.90;;;;;;5041283;28;36991;-81
2023/08/27 12:34:35;;;;;;;2.75;1.20;;;19.50;99.90;;;;;;5036063;28;36205;-82
2023/08/27 12:37:03;;;;;;;7.70;1.67;;;18.90;99.90;;;;;;5041217;28;37705;-83
2023/08/27 12:39:30;;;;;;;9.05;2.08;;;18.40;99.90;;;;;;5035642;28;47569;-80
2023/08/27 12:41:56;;;;;;;3.35;1.38;;;17.80;99.90;;;;;;5039389;28;38257;-82
2023/08/27 12:44:22;;;;;;;2.83;1.17;;;17.00;99.90;;;;;;5038536;28;35942;-83
2023/08/27 12:46:49;;;;;;;5.80;1.80;;;16.50;99.90;;;;;;5040680;28;37850;-84
2023/08/27 12:49:15;;;;;;;4.88;1.65;;;16.20;99.90;;;;;;5045015;28;39039;-83
2023/08/27 12:51:41;;;;;;;2.38;1.17;;;16.10;99.90;;;;;;5036841;28;37618;-84
2023/08/27 12:54:11;;;;;;;2.08;1.10;;;16.10;99.90;;;;;;5031037;28;38368;-81
2023/08/27 12:56:46;;;;;;;3.42;1.20;;;16.20;99.90;;;;;;5036340;28;40175;-84
2023/08/27 12:59:13;;;;;;;2.65;1.20;;;16.10;99.90;;;;;;5029610;28;38350;-85
2023/08/27 13:01:40;;;;;;;2.55;1.40;;;16.70;99.90;;;;;;5041754;28;37219;-85
2023/08/27 13:04:07;;;;;;;3.20;1.88;;;16.90;99.90;;;;;;5037413;28;36678;-82
2023/08/27 13:06:35;;;;;;;4.13;2.42;;;17.00;99.90;;;;;;5038144;28;37449;-82
2023/08/27 13:09:02;;;;;;;3.75;2.17;;;17.10;99.90;;;;;;5035102;28;37260;-84
2023/08/27 13:11:29;;;;;;;5.68;2.70;;;17.40;99.90;;;;;;5045670;28;48742;-84
2023/08/27 13:13:55;;;;;;;6.15;2.50;;;17.70;99.90;;;;;;5054906;28;36172;-85
2023/08/27 13:16:23;;;;;;;4.40;2.50;;;17.70;99.90;;;;;;5038331;28;39385;-84
2023/08/27 13:18:50;;;;;;;2.67;1.98;;;17.40;99.90;;;;;;5044056;28;38707;-84
2023/08/27 13:21:18;;;;;;;5.43;2.22;;;17.20;99.90;;;;;;5044944;28;38769;-85